Time;durP1;ratioP1;P1;durP2;ratioP2;P2;SDS_P1;SDS_P2;PMS_P1;PMS_P2;Temp;Humidity;BMP_temperature;BMP_pressure;BME280_temperature;BME280_humidity;BME280_pressure;Samples;Min_cycle;Max_cycle;Signal;HPM_P1;HPM_P2
2023/09/03 00:02:13;;;;;;;21.38;16.48;;;;;;;;;;5051446;28;20028;-77
2023/09/03 00:04:39;;;;;;;22.88;16.48;;;;;;;;;;5051174;28;20032;-77
2023/09/03 00:07:05;;;;;;;19.20;14.23;;;;;;;;;;5054744;28;20146;-77
2023/09/03 00:09:33;;;;;;;16.35;12.98;;;;;;;;;;5037441;28;20033;-77
2023/09/03 00:11:59;;;;;;;20.58;13.63;;;;;;;;;;5055409;28;20029;-77
2023/09/03 00:14:25;;;;;;;18.27;14.13;;;;;;;;;;5055843;28;20020;-77
2023/09/03 00:16:51;;;;;;;20.70;14.30;;;;;;;;;;5054781;28;20070;-77
2023/09/03 00:19:17;;;;;;;19.65;14.18;;;;;;;;;;5054841;28;20653;-77
2023/09/03 00:21:43;;;;;;;21.38;14.90;;;;;;;;;;5055071;28;20029;-77
2023/09/03 00:24:09;;;;;;;24.27;16.95;;;;;;;;;;5046473;28;20473;-77
2023/09/03 00:26:35;;;;;;;24.95;16.77;;;;;;;;;;5035293;28;20026;-77
2023/09/03 00:29:01;;;;;;;25.98;17.00;;;;;;;;;;5035133;28;20025;-77
2023/09/03 00:31:27;;;;;;;24.63;16.60;;;;;;;;;;5035060;28;20025;-77
2023/09/03 00:33:53;;;;;;;19.45;14.52;;;;;;;;;;5035350;28;20060;-77
2023/09/03 00:36:20;;;;;;;23.50;15.90;;;;;;;;;;5035381;28;20022;-77
2023/09/03 00:38:50;;;;;;;25.23;15.68;;;;;;;;;;5035090;28;20017;-77
2023/09/03 00:41:16;;;;;;;20.55;15.10;;;;;;;;;;5034772;28;20025;-77
2023/09/03 00:43:42;;;;;;;22.35;15.85;;;;;;;;;;5035546;28;20026;-77
2023/09/03 00:46:08;;;;;;;24.23;15.85;;;;;;;;;;5034648;28;20033;-77
2023/09/03 00:48:34;;;;;;;24.33;15.63;;;;;;;;;;5035000;28;20026;-77
2023/09/03 00:51:03;;;;;;;23.10;17.25;;;;;;;;;;5035018;28;20108;-77
2023/09/03 00:53:33;;;;;;;23.30;16.02;;;;;;;;;;5034723;28;20025;-77
2023/09/03 00:55:59;;;;;;;;;;;;;;;;;;5018860;28;20370;-77
2023/09/03 00:58:25;;;;;;;26.95;17.75;;;;;;;;;;5014866;28;19912;-77
2023/09/03 01:00:51;;;;;;;26.10;16.42;;;;;;;;;;5022954;28;20037;-77
2023/09/03 01:03:17;;;;;;;23.77;16.25;;;;;;;;;;5054551;28;20031;-77
2023/09/03 01:05:46;;;;;;;19.80;13.82;;;;;;;;;;5054243;28;20668;-77
2023/09/03 01:08:15;;;;;;;21.58;14.10;;;;;;;;;;5054676;28;20639;-77
2023/09/03 01:11:03;;;;;;;22.42;14.45;;;;;;;;;;5054588;28;20532;-77
2023/09/03 01:13:46;;;;;;;18.50;12.90;;;;;;;;;;5054685;28;20029;-77
2023/09/03 01:16:19;;;;;;;18.00;12.07;;;;;;;;;;5054723;28;20052;-77
2023/09/03 01:18:45;;;;;;;18.38;12.93;;;;;;;;;;5053995;28;20053;-77
2023/09/03 01:21:30;;;;;;;17.17;12.80;;;;;;;;;;5036079;28;20025;-77
2023/09/03 01:24:10;;;;;;;20.85;14.13;;;;;;;;;;5054289;28;20025;-77
2023/09/03 01:26:36;;;;;;;22.17;14.02;;;;;;;;;;5054292;28;20078;-77
2023/09/03 01:29:03;;;;;;;22.13;15.40;;;;;;;;;;5053871;28;20391;-77
2023/09/03 01:31:30;;;;;;;25.05;15.45;;;;;;;;;;5054193;28;20052;-77
2023/09/03 01:34:01;;;;;;;23.88;15.43;;;;;;;;;;5044473;28;20022;-77
2023/09/03 01:36:28;;;;;;;20.30;14.55;;;;;;;;;;5034128;28;20021;-77
2023/09/03 01:38:55;;;;;;;21.23;14.13;;;;;;;;;;5033818;28;20021;-77
2023/09/03 01:41:21;;;;;;;24.05;14.75;;;;;;;;;;5036530;28;20503;-77
2023/09/03 01:43:47;;;;;;;23.13;14.85;;;;;;;;;;5044702;28;20055;-77
2023/09/03 01:46:13;;;;;;;18.70;13.25;;;;;;;;;;5033826;28;20022;-77
2023/09/03 01:48:39;;;;;;;19.52;13.10;;;;;;;;;;5033591;28;20029;-77
2023/09/03 01:51:14;;;;;;;18.20;12.75;;;;;;;;;;5036391;28;20112;-77
2023/09/03 01:53:50;;;;;;;18.52;12.60;;;;;;;;;;5053642;28;20039;-77
2023/09/03 01:56:16;;;;;;;16.42;12.00;;;;;;;;;;5053261;28;20479;-77
2023/09/03 01:58:48;;;;;;;17.92;11.07;;;;;;;;;;5053434;28;20028;-77
2023/09/03 02:01:14;;;;;;;16.52;11.13;;;;;;;;;;5047088;28;20060;-77
2023/09/03 02:03:41;;;;;;;14.98;10.75;;;;;;;;;;5043519;28;20053;-77
2023/09/03 02:06:07;;;;;;;13.05;10.30;;;;;;;;;;5053420;28;20028;-77
2023/09/03 02:08:33;;;;;;;14.20;10.30;;;;;;;;;;5053118;28;20036;-77
2023/09/03 02:10:59;;;;;;;10.82;8.68;;;;;;;;;;5050811;28;20113;-77
2023/09/03 02:13:25;;;;;;;10.45;7.97;;;;;;;;;;5033256;28;20096;-77
2023/09/03 02:15:51;;;;;;;9.93;8.32;;;;;;;;;;5033004;28;20021;-77
2023/09/03 02:18:17;;;;;;;11.30;8.73;;;;;;;;;;5039495;28;20387;-77
2023/09/03 02:20:43;;;;;;;13.80;9.48;;;;;;;;;;5040530;28;20055;-77
2023/09/03 02:23:09;;;;;;;9.88;7.60;;;;;;;;;;5051987;28;20025;-77
2023/09/03 02:25:35;;;;;;;10.73;8.07;;;;;;;;;;5052625;28;20033;-77
2023/09/03 02:28:01;;;;;;;10.65;8.45;;;;;;;;;;5052389;28;20024;-77
2023/09/03 02:30:27;;;;;;;10.35;8.10;;;;;;;;;;5052618;28;20033;-77
2023/09/03 02:32:53;;;;;;;11.52;8.65;;;;;;;;;;5052722;28;20083;-77
2023/09/03 02:35:19;;;;;;;10.88;8.63;;;;;;;;;;5052646;28;20021;-77
2023/09/03 02:37:45;;;;;;;13.13;8.48;;;;;;;;;;5052511;28;20037;-77
2023/09/03 02:40:11;;;;;;;10.50;8.60;;;;;;;;;;5052461;28;20033;-77
2023/09/03 02:42:37;;;;;;;9.68;7.68;;;;;;;;;;5052342;28;20040;-77
2023/09/03 02:45:03;;;;;;;10.82;8.45;;;;;;;;;;5052478;28;20032;-77
2023/09/03 02:47:29;;;;;;;11.10;8.15;;;;;;;;;;5064729;28;20024;-77
2023/09/03 02:49:55;;;;;;;10.88;8.00;;;;;;;;;;5060703;28;20484;-77
2023/09/03 02:52:21;;;;;;;9.70;8.15;;;;;;;;;;5032167;28;20033;-77
2023/09/03 02:54:47;;;;;;;12.40;8.77;;;;;;;;;;5032486;28;20060;-77
2023/09/03 02:57:13;;;;;;;12.60;8.55;;;;;;;;;;5032149;28;20026;-77
2023/09/03 02:59:43;;;;;;;12.10;8.40;;;;;;;;;;5038293;28;20037;-77
2023/09/03 03:02:09;;;;;;;11.95;8.73;;;;;;;;;;5052416;28;20074;-77
2023/09/03 03:04:35;;;;;;;12.10;9.05;;;;;;;;;;5051923;28;20104;-77
2023/09/03 03:07:01;;;;;;;9.02;7.07;;;;;;;;;;5052233;28;20032;-77
2023/09/03 03:09:27;;;;;;;11.40;8.00;;;;;;;;;;5052042;28;20033;-77
2023/09/03 03:11:53;;;;;;;9.68;7.18;;;;;;;;;;5051902;28;20028;-77
2023/09/03 03:14:19;;;;;;;9.25;7.40;;;;;;;;;;5051717;28;20100;-77
2023/09/03 03:16:45;;;;;;;10.40;7.72;;;;;;;;;;5051890;28;20028;-76
2023/09/03 03:19:11;;;;;;;13.02;8.52;;;;;;;;;;5051359;28;20056;-77
2023/09/03 03:21:38;;;;;;;12.40;8.65;;;;;;;;;;5051828;28;20087;-77
2023/09/03 03:24:05;;;;;;;11.38;8.27;;;;;;;;;;5052006;28;20364;-77
2023/09/03 03:26:32;;;;;;;9.30;7.60;;;;;;;;;;5051784;28;20086;-77
2023/09/03 03:28:58;;;;;;;9.65;7.80;;;;;;;;;;5051803;28;20525;-77
2023/09/03 03:31:24;;;;;;;10.13;7.18;;;;;;;;;;5064775;28;20029;-77
2023/09/03 03:33:51;;;;;;;10.48;7.13;;;;;;;;;;5052309;28;20101;-76
2023/09/03 03:36:18;;;;;;;9.43;7.10;;;;;;;;;;5052373;28;20062;-76
2023/09/03 03:38:45;;;;;;;32.28;9.13;;;;;;;;;;5051534;28;20021;-77
2023/09/03 03:41:15;;;;;;;25.85;8.18;;;;;;;;;;5050937;28;20036;-77
2023/09/03 03:43:45;;;;;;;13.18;8.35;;;;;;;;;;5033356;28;20052;-77
2023/09/03 03:46:14;;;;;;;11.75;7.85;;;;;;;;;;5051654;28;20090;-76
2023/09/03 03:48:40;;;;;;;11.60;8.57;;;;;;;;;;5059982;28;20383;-76
2023/09/03 03:51:06;;;;;;;10.48;7.95;;;;;;;;;;5067929;28;20029;-77
2023/09/03 03:53:32;;;;;;;10.60;8.40;;;;;;;;;;5031800;28;20030;-76
2023/09/03 03:56:02;;;;;;;14.93;8.48;;;;;;;;;;5031264;28;20060;-77
2023/09/03 03:58:32;;;;;;;11.55;8.75;;;;;;;;;;5040878;28;20028;-77
2023/09/03 04:00:58;;;;;;;11.40;8.98;;;;;;;;;;5051001;28;20029;-77
2023/09/03 04:03:27;;;;;;;10.85;8.57;;;;;;;;;;5051684;28;20474;-77
2023/09/03 04:06:00;;;;;;;11.85;8.90;;;;;;;;;;5051478;28;20077;-77
2023/09/03 04:08:27;;;;;;;12.38;8.73;;;;;;;;;;5051246;28;20017;-77
2023/09/03 04:11:00;;;;;;;11.30;8.63;;;;;;;;;;5064613;28;20029;-77
2023/09/03 04:13:27;;;;;;;12.05;8.95;;;;;;;;;;5051082;28;20057;-77
2023/09/03 04:15:53;;;;;;;10.57;8.57;;;;;;;;;;5051278;28;20017;-77
2023/09/03 04:18:19;;;;;;;11.57;8.75;;;;;;;;;;5051149;28;20373;-76
2023/09/03 04:20:45;;;;;;;13.15;7.90;;;;;;;;;;5051018;28;20090;-77
2023/09/03 04:23:11;;;;;;;11.80;8.63;;;;;;;;;;5051095;28;20029;-77
2023/09/03 04:25:38;;;;;;;10.73;8.00;;;;;;;;;;5051277;28;20090;-77
2023/09/03 04:28:04;;;;;;;11.45;8.30;;;;;;;;;;5051387;28;20108;-77
2023/09/03 04:30:30;;;;;;;13.82;7.90;;;;;;;;;;5051264;28;20468;-77
2023/09/03 04:32:56;;;;;;;10.75;7.15;;;;;;;;;;5051100;28;20087;-77
2023/09/03 04:35:22;;;;;;;9.18;7.00;;;;;;;;;;5051220;28;20032;-77
2023/09/03 04:37:50;;;;;;;9.85;7.25;;;;;;;;;;5050871;28;20021;-77
2023/09/03 04:40:16;;;;;;;11.35;7.65;;;;;;;;;;5050690;28;20071;-77
2023/09/03 04:42:42;;;;;;;10.02;7.43;;;;;;;;;;5051088;28;20036;-76
2023/09/03 04:45:08;;;;;;;8.55;7.03;;;;;;;;;;5050984;28;20025;-78
2023/09/03 04:47:34;;;;;;;10.13;8.10;;;;;;;;;;5050799;28;20380;-77
2023/09/03 04:50:00;;;;;;;11.35;7.97;;;;;;;;;;5050565;28;20029;-77
2023/09/03 04:52:26;;;;;;;11.65;8.00;;;;;;;;;;5052687;28;20032;-77
2023/09/03 04:54:52;;;;;;;11.60;8.07;;;;;;;;;;5054705;28;20060;-76
2023/09/03 04:57:18;;;;;;;11.40;6.95;;;;;;;;;;5066621;28;20032;-77
2023/09/03 04:59:44;;;;;;;9.80;7.43;;;;;;;;;;5074556;28;20037;-76
2023/09/03 05:02:10;;;;;;;15.15;8.43;;;;;;;;;;5073991;28;20116;-76
2023/09/03 05:04:36;;;;;;;9.48;7.85;;;;;;;;;;5055021;28;20472;-76
2023/09/03 05:07:02;;;;;;;9.73;7.70;;;;;;;;;;5053980;28;20036;-77
2023/09/03 05:09:29;;;;;;;10.98;8.25;;;;;;;;;;5054624;28;20349;-76
2023/09/03 05:11:54;;;;;;;10.82;8.23;;;;;;;;;;5053800;28;20171;-77
2023/09/03 05:14:20;;;;;;;12.15;9.23;;;;;;;;;;5072780;28;20103;-77
2023/09/03 05:16:47;;;;;;;11.10;8.27;;;;;;;;;;5064280;28;20604;-76
2023/09/03 05:19:14;;;;;;;9.18;7.28;;;;;;;;;;5053795;28;20546;-77
2023/09/03 05:21:43;;;;;;;10.40;7.90;;;;;;;;;;5053884;28;20029;-77
2023/09/03 05:24:12;;;;;;;12.40;8.73;;;;;;;;;;5054027;28;20150;-77
2023/09/03 05:26:38;;;;;;;10.52;8.02;;;;;;;;;;5053856;28;20376;-77
2023/09/03 05:29:04;;;;;;;10.55;8.27;;;;;;;;;;5053830;28;20025;-77
2023/09/03 05:31:30;;;;;;;11.20;8.68;;;;;;;;;;5053831;28;20025;-77
2023/09/03 05:33:57;;;;;;;11.40;8.65;;;;;;;;;;5053948;28;20080;-76
2023/09/03 05:36:23;;;;;;;13.48;9.23;;;;;;;;;;5053487;28;20127;-77
2023/09/03 05:38:49;;;;;;;10.63;8.52;;;;;;;;;;5053568;28;20483;-77
2023/09/03 05:41:15;;;;;;;11.98;9.30;;;;;;;;;;5053521;28;20025;-77
2023/09/03 05:43:41;;;;;;;14.38;9.68;;;;;;;;;;5053619;28;20036;-77
2023/09/03 05:46:07;;;;;;;14.68;9.95;;;;;;;;;;5053439;28;20017;-76
2023/09/03 05:48:33;;;;;;;11.93;9.23;;;;;;;;;;5045937;28;20021;-77
2023/09/03 05:51:05;;;;;;;13.35;9.57;;;;;;;;;;5033755;28;20061;-77
2023/09/03 05:53:34;;;;;;;13.88;9.23;;;;;;;;;;5033430;28;20098;-76
2023/09/03 05:56:19;;;;;;;12.27;9.20;;;;;;;;;;5033606;28;20631;-76
2023/09/03 05:58:45;;;;;;;13.68;9.52;;;;;;;;;;5033660;28;20076;-77
2023/09/03 06:01:11;;;;;;;13.18;10.02;;;;;;;;;;5051394;28;20020;-76
2023/09/03 06:03:38;;;;;;;12.80;9.75;;;;;;;;;;5052287;28;20424;-76
2023/09/03 06:06:08;;;;;;;12.25;9.70;;;;;;;;;;5053415;28;20017;-77
2023/09/03 06:08:34;;;;;;;;;;;;;;;;;;5053519;28;20029;-77
2023/09/03 06:11:00;;;;;;;13.65;9.85;;;;;;;;;;5048718;28;19909;-78
2023/09/03 06:13:30;;;;;;;12.15;9.20;;;;;;;;;;5056507;28;20028;-77
2023/09/03 06:15:56;;;;;;;11.20;9.60;;;;;;;;;;5067487;28;20148;-77
2023/09/03 06:18:22;;;;;;;12.88;9.98;;;;;;;;;;5052929;28;20375;-78
2023/09/03 06:20:49;;;;;;;12.52;9.70;;;;;;;;;;5052828;28;20037;-77
2023/09/03 06:23:18;;;;;;;13.60;10.05;;;;;;;;;;5052838;28;20450;-77
2023/09/03 06:25:47;;;;;;;12.68;9.60;;;;;;;;;;5053171;28;20016;-77
2023/09/03 06:28:13;;;;;;;10.98;9.45;;;;;;;;;;5052783;28;20021;-77
2023/09/03 06:30:40;;;;;;;13.23;10.52;;;;;;;;;;5052494;28;20025;-77
2023/09/03 06:33:06;;;;;;;12.23;9.75;;;;;;;;;;5052600;28;20463;-77
2023/09/03 06:35:32;;;;;;;10.30;8.63;;;;;;;;;;5052679;28;20456;-77
2023/09/03 06:37:59;;;;;;;13.45;10.18;;;;;;;;;;5052374;28;20128;-77
2023/09/03 06:40:25;;;;;;;11.50;9.93;;;;;;;;;;5052715;28;20086;-77
2023/09/03 06:42:51;;;;;;;10.98;9.75;;;;;;;;;;5068060;28;20028;-77
2023/09/03 06:45:17;;;;;;;10.82;9.18;;;;;;;;;;5072539;28;20029;-77
2023/09/03 06:47:44;;;;;;;14.70;11.07;;;;;;;;;;5072869;28;20421;-77
2023/09/03 06:50:10;;;;;;;12.25;10.35;;;;;;;;;;5073185;28;20025;-77
2023/09/03 06:52:36;;;;;;;12.48;10.05;;;;;;;;;;5056750;28;20021;-77
2023/09/03 06:55:02;;;;;;;12.32;10.63;;;;;;;;;;5052393;28;20388;-77
2023/09/03 06:57:29;;;;;;;12.88;10.38;;;;;;;;;;5053479;28;20039;-78
2023/09/03 06:59:55;;;;;;;10.15;9.15;;;;;;;;;;5052352;28;20032;-78
2023/09/03 07:02:22;;;;;;;11.95;10.57;;;;;;;;;;5052278;28;20391;-78
2023/09/03 07:04:48;;;;;;;10.43;8.68;;;;;;;;;;5032647;28;20072;-78
2023/09/03 07:07:14;;;;;;;12.20;8.73;;;;;;;;;;5032515;28;20119;-78
2023/09/03 07:09:40;;;;;;;9.57;8.38;;;;;;;;;;5032831;28;20037;-78
2023/09/03 07:12:07;;;;;;;11.30;8.13;;;;;;;;;;5046872;28;20033;-78
2023/09/03 07:14:33;;;;;;;9.00;7.28;;;;;;;;;;5052187;28;20094;-79
2023/09/03 07:17:00;;;;;;;7.55;6.72;;;;;;;;;;5052193;28;20693;-78
2023/09/03 07:19:26;;;;;;;8.48;7.13;;;;;;;;;;5052298;28;20084;-79
2023/09/03 07:21:52;;;;;;;7.15;6.55;;;;;;;;;;5053497;28;20664;-79
2023/09/03 07:24:18;;;;;;;7.28;6.50;;;;;;;;;;5052217;28;20025;-79
2023/09/03 07:26:44;;;;;;;7.88;6.32;;;;;;;;;;5052231;28;20025;-79
2023/09/03 07:29:12;;;;;;;7.57;6.30;;;;;;;;;;5052204;28;20112;-79
2023/09/03 07:31:41;;;;;;;6.78;6.07;;;;;;;;;;5053029;28;20024;-79
2023/09/03 07:34:16;;;;;;;6.38;5.78;;;;;;;;;;5054277;28;20056;-79
2023/09/03 07:36:42;;;;;;;6.95;5.72;;;;;;;;;;5052173;28;20033;-79
2023/09/03 07:39:09;;;;;;;6.53;5.82;;;;;;;;;;5053322;28;20025;-79
2023/09/03 07:41:36;;;;;;;6.07;5.40;;;;;;;;;;5054922;28;20106;-79
2023/09/03 07:44:02;;;;;;;7.45;5.03;;;;;;;;;;5053787;28;20043;-79
2023/09/03 07:46:28;;;;;;;5.38;4.88;;;;;;;;;;5056538;28;20029;-80
2023/09/03 07:48:54;;;;;;;12.82;5.72;;;;;;;;;;5057928;28;20025;-79
2023/09/03 07:51:21;;;;;;;6.75;5.10;;;;;;;;;;5057771;28;20029;-79
2023/09/03 07:53:47;;;;;;;5.57;5.00;;;;;;;;;;5058176;28;20360;-79
2023/09/03 07:56:13;;;;;;;7.07;5.07;;;;;;;;;;5037697;28;20040;-78
2023/09/03 07:58:42;;;;;;;5.72;4.78;;;;;;;;;;5067546;28;20031;-79
2023/09/03 08:01:10;;;;;;;5.45;4.85;;;;;;;;;;5040675;28;20477;-79
2023/09/03 08:03:36;;;;;;;4.97;4.38;;;;;;;;;;5057311;28;20025;-79
2023/09/03 08:06:03;;;;;;;6.22;5.05;;;;;;;;;;5072780;28;20024;-78
2023/09/03 08:08:29;;;;;;;5.82;5.28;;;;;;;;;;5072007;28;20019;-78
2023/09/03 08:10:58;;;;;;;8.25;5.47;;;;;;;;;;5074959;28;20108;-79
2023/09/03 08:13:24;;;;;;;5.85;4.57;;;;;;;;;;5071827;28;20029;-79
2023/09/03 08:15:50;;;;;;;5.55;4.05;;;;;;;;;;5071555;28;20056;-79
2023/09/03 08:18:16;;;;;;;4.85;4.10;;;;;;;;;;5072984;28;20053;-80
2023/09/03 08:20:42;;;;;;;6.10;4.00;;;;;;;;;;5074201;28;20119;-79
2023/09/03 08:23:12;;;;;;;5.50;4.38;;;;;;;;;;5072585;28;20040;-79
2023/09/03 08:25:39;;;;;;;6.40;5.25;;;;;;;;;;5071667;28;20021;-78
2023/09/03 08:28:05;;;;;;;6.28;4.60;;;;;;;;;;5065733;28;20028;-79
2023/09/03 08:30:31;;;;;;;6.40;4.63;;;;;;;;;;5060427;28;20029;-79
2023/09/03 08:32:57;;;;;;;6.18;4.32;;;;;;;;;;5075815;28;20024;-79
2023/09/03 08:35:23;;;;;;;5.45;4.18;;;;;;;;;;5064397;28;20029;-79
2023/09/03 08:37:49;;;;;;;4.93;3.78;;;;;;;;;;5035789;28;20034;-78
2023/09/03 08:40:17;;;;;;;4.25;3.38;;;;;;;;;;5054109;28;20032;-79
2023/09/03 08:42:47;;;;;;;5.97;3.53;;;;;;;;;;5057302;28;20022;-79
2023/09/03 08:45:13;;;;;;;6.07;3.65;;;;;;;;;;5059019;28;20033;-79
2023/09/03 08:47:40;;;;;;;4.13;3.20;;;;;;;;;;5057638;28;20021;-79
2023/09/03 08:50:10;;;;;;;3.63;3.30;;;;;;;;;;5054944;28;20476;-79
2023/09/03 08:52:37;;;;;;;4.28;3.38;;;;;;;;;;5056439;28;20025;-79
2023/09/03 08:55:05;;;;;;;6.00;3.35;;;;;;;;;;5066193;28;20035;-79
2023/09/03 08:57:34;;;;;;;4.10;2.90;;;;;;;;;;5076681;28;20028;-79
2023/09/03 09:00:00;;;;;;;4.22;3.38;;;;;;;;;;5075653;28;20177;-79
2023/09/03 09:02:27;;;;;;;4.38;3.17;;;;;;;;;;5076789;28;20042;-79
2023/09/03 09:04:53;;;;;;;3.40;2.53;;;;;;;;;;5061979;28;20030;-79
2023/09/03 09:07:19;;;;;;;5.53;2.83;;;;;;;;;;5050011;28;20027;-79
2023/09/03 09:09:47;;;;;;;6.13;2.38;;;;;;;;;;5046258;28;20113;-79
2023/09/03 09:12:18;;;;;;;3.37;2.07;;;;;;;;;;5050433;28;20021;-79
2023/09/03 09:14:54;;;;;;;5.85;2.50;;;;;;;;;;5055126;28;20256;-79
2023/09/03 09:17:20;;;;;;;4.32;2.22;;;;;;;;;;5054489;28;20025;-80
2023/09/03 09:19:48;;;;;;;2.67;1.60;;;;;;;;;;5053596;28;20049;-80
2023/09/03 09:22:14;;;;;;;3.20;1.60;;;;;;;;;;5066121;28;20032;-80
2023/09/03 09:24:44;;;;;;;1.65;1.52;;;;;;;;;;5038390;28;20029;-79
2023/09/03 09:27:14;;;;;;;2.83;1.23;;;;;;;;;;5058757;28;20029;-80
2023/09/03 09:29:40;;;;;;;3.20;1.45;;;;;;;;;;5036221;28;20358;-79
2023/09/03 09:32:17;;;;;;;3.10;1.42;;;;;;;;;;5037700;28;20500;-79
2023/09/03 09:34:43;;;;;;;3.40;1.73;;;;;;;;;;5059565;28;20021;-80
2023/09/03 09:37:09;;;;;;;3.15;1.58;;;;;;;;;;5056415;28;20054;-79
2023/09/03 09:40:01;;;;;;;2.60;1.58;;;;;;;;;;5054397;28;20037;-79
2023/09/03 09:42:28;;;;;;;2.90;1.30;;;;;;;;;;5051361;28;20040;-80
2023/09/03 09:44:54;;;;;;;2.90;1.33;;;;;;;;;;5056713;28;20032;-80
2023/09/03 09:47:21;;;;;;;2.83;1.55;;;;;;;;;;5059733;28;20029;-80
2023/09/03 09:49:48;;;;;;;3.33;1.50;;;;;;;;;;5040207;28;20038;-80
2023/09/03 09:52:17;;;;;;;2.50;1.70;;;;;;;;;;5057189;28;20035;-80
2023/09/03 09:54:44;;;;;;;1.83;1.63;;;;;;;;;;5041803;28;20460;-79
2023/09/03 09:57:11;;;;;;;2.90;1.27;;;;;;;;;;5065124;28;20017;-79
2023/09/03 09:59:38;;;;;;;1.67;1.17;;;;;;;;;;5045472;28;20025;-79
2023/09/03 10:02:13;;;;;;;4.15;1.40;;;;;;;;;;5057261;28;20014;-80
2023/09/03 10:04:43;;;;;;;2.17;1.10;;;;;;;;;;5052894;28;20024;-80
2023/09/03 10:07:09;;;;;;;2.42;1.27;;;;;;;;;;5057923;28;20045;-80
2023/09/03 10:09:35;;;;;;;2.03;1.00;;;;;;;;;;5056904;28;20682;-80
2023/09/03 10:12:02;;;;;;;2.25;1.55;;;;;;;;;;5041510;28;20025;-79
2023/09/03 10:14:28;;;;;;;3.03;1.50;;;;;;;;;;5022643;28;20414;-78
2023/09/03 10:16:56;;;;;;;2.20;1.30;;;;;;;;;;5055158;28;20025;-79
2023/09/03 10:19:24;;;;;;;1.50;1.35;;;;;;;;;;5054144;28;20063;-79
2023/09/03 10:21:51;;;;;;;2.20;1.42;;;;;;;;;;5053041;28;20430;-78
2023/09/03 10:24:19;;;;;;;1.50;1.05;;;;;;;;;;5054210;28;20017;-78
2023/09/03 10:26:47;;;;;;;2.05;1.25;;;;;;;;;;5054648;28;20032;-79
2023/09/03 10:29:15;;;;;;;1.67;1.10;;;;;;;;;;5054449;28;20021;-79
2023/09/03 10:31:42;;;;;;;2.40;1.10;;;;;;;;;;5054538;28;20640;-80
2023/09/03 10:34:10;;;;;;;2.55;1.10;;;;;;;;;;5057331;28;20021;-80
2023/09/03 10:36:36;;;;;;;2.28;1.20;;;;;;;;;;5055837;28;20025;-79
2023/09/03 10:39:25;;;;;;;2.88;1.35;;;;;;;;;;5054777;28;20524;-79
2023/09/03 10:42:21;;;;;;;2.30;1.30;;;;;;;;;;5059202;28;20053;-80
2023/09/03 10:44:51;;;;;;;3.53;1.55;;;;;;;;;;5042832;28;20044;-80
2023/09/03 10:47:18;;;;;;;2.67;1.55;;;;;;;;;;5054221;28;20033;-80
2023/09/03 10:49:48;;;;;;;2.63;1.63;;;;;;;;;;5054630;28;20111;-80
2023/09/03 10:52:30;;;;;;;2.28;1.10;;;;;;;;;;5055916;28;20033;-79
2023/09/03 10:55:08;;;;;;;2.63;1.63;;;;;;;;;;5053950;28;20017;-80
2023/09/03 10:57:34;;;;;;;2.50;1.77;;;;;;;;;;5056042;28;20049;-79
2023/09/03 11:00:04;;;;;;;3.22;1.33;;;;;;;;;;5054113;28;20118;-79
2023/09/03 11:02:32;;;;;;;2.13;1.20;;;;;;;;;;5053857;28;20088;-79
2023/09/03 11:05:14;;;;;;;3.13;1.77;;;;;;;;;;5054805;28;20025;-79
2023/09/03 11:07:44;;;;;;;2.67;1.67;;;;;;;;;;5054591;28;20409;-79
2023/09/03 11:10:24;;;;;;;2.85;2.05;;;;;;;;;;5053937;28;20036;-79
2023/09/03 11:12:51;;;;;;;2.45;1.35;;;;;;;;;;5042116;28;20040;-79
2023/09/03 11:15:18;;;;;;;2.78;1.38;;;;;;;;;;5053654;28;20032;-79
2023/09/03 11:17:50;;;;;;;2.53;1.33;;;;;;;;;;5075612;28;20029;-79
2023/09/03 11:20:32;;;;;;;3.13;1.60;;;;;;;;;;5046664;28;20057;-79
2023/09/03 11:22:59;;;;;;;3.38;2.05;;;;;;;;;;5064997;28;20067;-79
2023/09/03 11:25:36;;;;;;;1.35;1.20;;;;;;;;;;5053954;28;20021;-79
2023/09/03 11:28:02;;;;;;;2.75;1.60;;;;;;;;;;5034846;28;20031;-79
2023/09/03 11:30:28;;;;;;;1.95;1.50;;;;;;;;;;5054066;28;20694;-79
2023/09/03 11:32:54;;;;;;;2.20;1.63;;;;;;;;;;5056019;28;20103;-79
2023/09/03 11:35:21;;;;;;;1.75;1.20;;;;;;;;;;5053361;28;20029;-79
2023/09/03 11:37:47;;;;;;;4.45;1.52;;;;;;;;;;5054631;28;20021;-79
2023/09/03 11:40:13;;;;;;;3.10;1.30;;;;;;;;;;5054720;28;20028;-79
2023/09/03 11:42:43;;;;;;;2.08;1.40;;;;;;;;;;5052618;28;20064;-79
2023/09/03 11:45:11;;;;;;;1.70;1.52;;;;;;;;;;5053127;28;20029;-79
2023/09/03 11:47:38;;;;;;;2.70;1.85;;;;;;;;;;5053452;28;20013;-78
2023/09/03 11:50:12;;;;;;;3.45;1.75;;;;;;;;;;5047108;28;20025;-78
2023/09/03 11:52:38;;;;;;;2.88;1.88;;;;;;;;;;5053888;28;20555;-79
2023/09/03 11:55:04;;;;;;;2.42;1.60;;;;;;;;;;5047202;28;20037;-79
2023/09/03 11:57:32;;;;;;;1.73;1.30;;;;;;;;;;5051593;28;20037;-79
2023/09/03 11:59:58;;;;;;;4.22;1.50;;;;;;;;;;5053949;28;20029;-79
2023/09/03 12:02:24;;;;;;;2.83;1.77;;;;;;;;;;5055845;28;20535;-79
2023/09/03 12:04:50;;;;;;;2.22;1.50;;;;;;;;;;5058035;28;20120;-79
2023/09/03 12:07:17;;;;;;;2.50;1.80;;;;;;;;;;5057978;28;20100;-79
2023/09/03 12:09:43;;;;;;;3.13;1.40;;;;;;;;;;5059836;28;20025;-80
2023/09/03 12:12:09;;;;;;;1.48;1.08;;;;;;;;;;5059568;28;20108;-80
2023/09/03 12:14:36;;;;;;;1.85;1.55;;;;;;;;;;5057983;28;20024;-79
2023/09/03 12:17:02;;;;;;;1.48;1.23;;;;;;;;;;5060105;28;20029;-79
2023/09/03 12:19:38;;;;;;;3.08;1.60;;;;;;;;;;5074619;28;20048;-79
2023/09/03 12:22:04;;;;;;;1.73;1.40;;;;;;;;;;5064686;28;20025;-79
2023/09/03 12:24:30;;;;;;;2.45;1.40;;;;;;;;;;5080376;28;20047;-79
2023/09/03 12:27:05;;;;;;;1.52;1.30;;;;;;;;;;5048607;28;20487;-79
2023/09/03 12:29:36;;;;;;;1.70;1.20;;;;;;;;;;5050609;28;20030;-79
2023/09/03 12:32:02;;;;;;;1.63;1.00;;;;;;;;;;5039706;28;20018;-79
2023/09/03 12:34:39;;;;;;;1.52;1.10;;;;;;;;;;5051601;28;20032;-79
2023/09/03 12:37:05;;;;;;;1.70;1.27;;;;;;;;;;5058887;28;20052;-79
2023/09/03 12:39:35;;;;;;;2.22;1.08;;;;;;;;;;5059113;28;20487;-79
2023/09/03 12:42:01;;;;;;;1.67;1.20;;;;;;;;;;5059725;28;20559;-79
2023/09/03 12:44:28;;;;;;;1.90;1.10;;;;;;;;;;5059168;28;20172;-79
2023/09/03 12:46:55;;;;;;;1.38;1.17;;;;;;;;;;5058134;28;20425;-79
2023/09/03 12:49:22;;;;;;;1.20;1.10;;;;;;;;;;5058811;28;20055;-79
2023/09/03 12:51:48;;;;;;;1.80;1.13;;;;;;;;;;5059125;28;20025;-79
2023/09/03 12:54:15;;;;;;;1.13;0.90;;;;;;;;;;5059730;28;20025;-79
2023/09/03 12:56:41;;;;;;;2.55;1.10;;;;;;;;;;5065457;28;20021;-79
2023/09/03 12:59:07;;;;;;;1.63;1.20;;;;;;;;;;5078006;28;20032;-79
2023/09/03 13:01:38;;;;;;;1.30;1.10;;;;;;;;;;5077921;28;20059;-79
2023/09/03 13:04:05;;;;;;;1.45;1.08;;;;;;;;;;5075467;28;20055;-79
2023/09/03 13:06:31;;;;;;;1.40;1.00;;;;;;;;;;5037971;28;20071;-79
2023/09/03 13:08:57;;;;;;;0.80;0.80;;;;;;;;;;5040236;28;20029;-80
2023/09/03 13:11:23;;;;;;;1.90;1.02;;;;;;;;;;5071057;28;20040;-79
2023/09/03 13:13:52;;;;;;;1.20;0.90;;;;;;;;;;5047658;28;20036;-79
2023/09/03 13:16:19;;;;;;;0.82;0.70;;;;;;;;;;5031302;28;20033;-79
2023/09/03 13:18:45;;;;;;;0.85;0.80;;;;;;;;;;5071236;28;20048;-80
2023/09/03 13:21:12;;;;;;;2.40;1.10;;;;;;;;;;5059214;28;20083;-80
2023/09/03 13:23:38;;;;;;;1.48;1.30;;;;;;;;;;5058963;28;20032;-79
2023/09/03 13:26:04;;;;;;;2.10;1.38;;;;;;;;;;5057151;28;20053;-80
2023/09/03 13:28:32;;;;;;;2.15;1.13;;;;;;;;;;5055962;28;20017;-79
2023/09/03 13:30:58;;;;;;;1.75;1.00;;;;;;;;;;5064814;28;20024;-79
2023/09/03 13:33:24;;;;;;;1.50;1.05;;;;;;;;;;5075503;28;20025;-78
2023/09/03 13:35:51;;;;;;;2.70;1.00;;;;;;;;;;5075658;28;20024;-78
2023/09/03 13:38:17;;;;;;;1.48;1.20;;;;;;;;;;5075444;28;20021;-78
2023/09/03 13:40:43;;;;;;;2.90;1.10;;;;;;;;;;5057355;28;20085;-79
2023/09/03 13:43:09;;;;;;;2.05;1.30;;;;;;;;;;5055455;28;20064;-79
2023/09/03 13:45:36;;;;;;;2.25;1.38;;;;;;;;;;5056707;28;20033;-79
2023/09/03 13:48:02;;;;;;;3.15;1.35;;;;;;;;;;5057266;28;20375;-79
2023/09/03 13:50:29;;;;;;;1.55;1.10;;;;;;;;;;5056962;28;20633;-79
2023/09/03 13:52:58;;;;;;;2.05;1.40;;;;;;;;;;5056668;28;20025;-79
2023/09/03 13:55:24;;;;;;;;;;;;;;;;;;5049902;28;20021;-79
2023/09/03 13:57:51;;;;;;;2.75;1.35;;;;;;;;;;5050669;28;20367;-79
2023/09/03 14:00:17;;;;;;;1.30;1.20;;;;;;;;;;5057403;28;20056;-79
2023/09/03 14:02:43;;;;;;;3.28;1.50;;;;;;;;;;5053587;28;20025;-79
2023/09/03 14:05:09;;;;;;;1.60;1.30;;;;;;;;;;5053535;28;20104;-79
2023/09/03 14:07:36;;;;;;;1.30;1.00;;;;;;;;;;5056929;28;20204;-79
2023/09/03 14:10:02;;;;;;;1.60;1.42;;;;;;;;;;5057475;28;20143;-79
2023/09/03 14:12:27;;;;;;;1.67;1.30;;;;;;;;;;5056909;28;20031;-79
2023/09/03 14:15:00;;;;;;;1.63;1.38;;;;;;;;;;5054774;28;20025;-78
2023/09/03 14:17:26;;;;;;;1.60;1.27;;;;;;;;;;5054880;28;20070;-79
2023/09/03 14:19:58;;;;;;;2.25;1.58;;;;;;;;;;5053755;28;20053;-79
2023/09/03 14:22:24;;;;;;;1.98;1.40;;;;;;;;;;5060587;28;20423;-78
2023/09/03 14:24:50;;;;;;;2.28;1.42;;;;;;;;;;5073018;28;20459;-78
2023/09/03 14:27:16;;;;;;;0.98;0.98;;;;;;;;;;5074313;28;20169;-78
2023/09/03 14:29:42;;;;;;;1.40;1.17;;;;;;;;;;5049009;28;20034;-78
2023/09/03 14:32:08;;;;;;;2.47;1.30;;;;;;;;;;5053855;28;20151;-78
2023/09/03 14:34:34;;;;;;;1.38;1.08;;;;;;;;;;5046737;28;20029;-78
2023/09/03 14:37:01;;;;;;;1.80;1.42;;;;;;;;;;5039555;28;20021;-80
2023/09/03 14:39:27;;;;;;;2.17;1.42;;;;;;;;;;5069822;28;20090;-79